sensor_id;sensor_type;location;lat;lon;timestamp;pressure;altitude;pressure_sealevel;temperature;humidity
59240;BME280;45010;53.640;10.578;2023-02-28T00:02:43;102504.78;;;25.58;30.97
59240;BME280;45010;53.640;10.578;2023-02-28T00:05:44;102498.41;;;25.59;30.89
59240;BME280;45010;53.640;10.578;2023-02-28T00:08:44;102499.44;;;25.58;30.70
59240;BME280;45010;53.640;10.578;2023-02-28T00:11:44;102495.72;;;25.59;30.91
59240;BME280;45010;53.640;10.578;2023-02-28T00:14:44;102490.00;;;25.62;31.01
59240;BME280;45010;53.640;10.578;2023-02-28T00:17:45;102484.22;;;25.59;30.86
59240;BME280;45010;53.640;10.578;2023-02-28T00:20:46;102493.31;;;25.64;30.86
59240;BME280;45010;53.640;10.578;2023-02-28T00:23:46;102490.81;;;25.63;31.04
59240;BME280;45010;53.640;10.578;2023-02-28T00:26:47;102495.34;;;25.62;30.98
59240;BME280;45010;53.640;10.578;2023-02-28T00:29:47;102487.09;;;25.57;30.80
59240;BME280;45010;53.640;10.578;2023-02-28T00:32:49;102486.25;;;25.57;30.97
59240;BME280;45010;53.640;10.578;2023-02-28T00:35:49;102499.03;;;25.61;30.72
59240;BME280;45010;53.640;10.578;2023-02-28T00:38:51;102485.81;;;25.53;30.87
59240;BME280;45010;53.640;10.578;2023-02-28T00:41:52;102498.66;;;25.64;30.87
59240;BME280;45010;53.640;10.578;2023-02-28T00:44:52;102497.00;;;25.63;30.61
59240;BME280;45010;53.640;10.578;2023-02-28T00:47:53;102498.84;;;25.63;30.94
59240;BME280;45010;53.640;10.578;2023-02-28T00:50:53;102487.28;;;25.56;30.69
59240;BME280;45010;53.640;10.578;2023-02-28T00:53:54;102491.41;;;25.58;30.73
59240;BME280;45010;53.640;10.578;2023-02-28T00:56:54;102504.00;;;25.64;30.81
59240;BME280;45010;53.640;10.578;2023-02-28T00:59:54;102504.00;;;25.64;30.86
59240;BME280;45010;53.640;10.578;2023-02-28T01:02:55;102498.66;;;25.64;30.80
59240;BME280;45010;53.640;10.578;2023-02-28T01:05:55;102502.34;;;25.63;30.68
59240;BME280;45010;53.640;10.578;2023-02-28T01:08:55;102513.03;;;25.63;30.68
59240;BME280;45010;53.640;10.578;2023-02-28T01:11:56;102491.50;;;25.50;30.81
59240;BME280;45010;53.640;10.578;2023-02-28T01:14:57;102520.03;;;25.64;30.77
59240;BME280;45010;53.640;10.578;2023-02-28T01:17:58;102500.25;;;25.59;30.86
59240;BME280;45010;53.640;10.578;2023-02-28T01:21:03;102504.00;;;25.64;30.88
59240;BME280;45010;53.640;10.578;2023-02-28T01:24:04;102495.13;;;25.57;30.59
59240;BME280;45010;53.640;10.578;2023-02-28T01:27:05;102513.03;;;25.63;30.64
59240;BME280;45010;53.640;10.578;2023-02-28T01:30:07;102506.41;;;25.59;30.48
59240;BME280;45010;53.640;10.578;2023-02-28T01:33:07;102515.47;;;25.58;30.62
59240;BME280;45010;53.640;10.578;2023-02-28T01:39:12;102480.72;;;25.36;30.33
59240;BME280;45010;53.640;10.578;2023-02-28T01:42:13;102508.78;;;25.47;30.48
59240;BME280;45010;53.640;10.578;2023-02-28T01:48:26;102505.03;;;25.42;30.37
59240;BME280;45010;53.640;10.578;2023-02-28T01:51:46;102490.97;;;25.33;30.38
59240;BME280;45010;53.640;10.578;2023-02-28T01:54:52;102496.72;;;25.30;30.54
59240;BME280;45010;53.640;10.578;2023-02-28T01:57:56;102494.22;;;25.28;30.57
59240;BME280;45010;53.640;10.578;2023-02-28T02:00:58;102502.88;;;25.30;30.83
59240;BME280;45010;53.640;10.578;2023-02-28T02:04:01;102495.81;;;25.22;30.75
59240;BME280;45010;53.640;10.578;2023-02-28T02:07:02;102499.94;;;25.25;30.92
59240;BME280;45010;53.640;10.578;2023-02-28T02:10:13;102500.34;;;25.22;30.87
59240;BME280;45010;53.640;10.578;2023-02-28T02:13:45;102499.91;;;25.18;30.78
59240;BME280;45010;53.640;10.578;2023-02-28T02:17:35;102497.78;;;25.14;30.80
59240;BME280;45010;53.640;10.578;2023-02-28T02:27:59;102493.63;;;25.04;30.94
59240;BME280;45010;53.640;10.578;2023-02-28T02:31:58;102491.13;;;25.03;30.75
59240;BME280;45010;53.640;10.578;2023-02-28T02:37:43;102491.69;;;24.98;30.76
59240;BME280;45010;53.640;10.578;2023-02-28T02:44:33;102490.16;;;24.89;30.86
59240;BME280;45010;53.640;10.578;2023-02-28T02:47:37;102497.81;;;24.92;30.91
59240;BME280;45010;53.640;10.578;2023-02-28T02:50:43;102495.50;;;24.89;30.79
59240;BME280;45010;53.640;10.578;2023-02-28T02:53:49;102478.03;;;24.71;30.90
59240;BME280;45010;53.640;10.578;2023-02-28T02:56:51;102504.91;;;24.84;30.83
59240;BME280;45010;53.640;10.578;2023-02-28T02:59:53;102478.03;;;24.71;30.73
59240;BME280;45010;53.640;10.578;2023-02-28T03:02:56;102488.97;;;24.76;30.87
59240;BME280;45010;53.640;10.578;2023-02-28T03:05:59;102480.09;;;24.69;30.84
59240;BME280;45010;53.640;10.578;2023-02-28T03:09:00;102495.72;;;24.72;30.95
59240;BME280;45010;53.640;10.578;2023-02-28T03:12:01;102500.66;;;24.75;30.79
59240;BME280;45010;53.640;10.578;2023-02-28T03:18:22;102493.06;;;24.72;30.95
59240;BME280;45010;53.640;10.578;2023-02-28T03:21:38;102505.75;;;24.70;30.80
59240;BME280;45010;53.640;10.578;2023-02-28T03:24:50;102479.50;;;24.52;30.73
59240;BME280;45010;53.640;10.578;2023-02-28T03:31:30;102495.81;;;24.64;30.92
59240;BME280;45010;53.640;10.578;2023-02-28T03:34:34;102481.06;;;24.46;30.76
59240;BME280;45010;53.640;10.578;2023-02-28T03:37:38;102507.06;;;24.59;30.89
59240;BME280;45010;53.640;10.578;2023-02-28T03:40:43;102504.56;;;24.57;31.02
59240;BME280;45010;53.640;10.578;2023-02-28T03:43:53;102490.06;;;24.45;30.94
59240;BME280;45010;53.640;10.578;2023-02-28T03:47:04;102506.16;;;24.52;30.78
59240;BME280;45010;53.640;10.578;2023-02-28T03:50:24;102512.69;;;24.49;30.91
59240;BME280;45010;53.640;10.578;2023-02-28T03:53:41;102486.22;;;24.33;31.12
59240;BME280;45010;53.640;10.578;2023-02-28T03:56:54;102508.75;;;24.45;31.10
59240;BME280;45010;53.640;10.578;2023-02-28T03:59:59;102497.81;;;24.40;30.99
59240;BME280;45010;53.640;10.578;2023-02-28T04:03:00;102518.78;;;24.43;30.83
59240;BME280;45010;53.640;10.578;2023-02-28T04:06:01;102505.63;;;24.41;31.29
59240;BME280;45010;53.640;10.578;2023-02-28T04:09:04;102516.66;;;24.38;31.07
59240;BME280;45010;53.640;10.578;2023-02-28T04:12:05;102516.84;;;24.37;31.24
59240;BME280;45010;53.640;10.578;2023-02-28T04:15:06;102517.22;;;24.34;31.06
59240;BME280;45010;53.640;10.578;2023-02-28T04:18:06;102515.75;;;24.31;31.19
59240;BME280;45010;53.640;10.578;2023-02-28T04:21:07;102507.94;;;24.29;31.23
59240;BME280;45010;53.640;10.578;2023-02-28T04:24:09;102511.59;;;24.28;31.11
59240;BME280;45010;53.640;10.578;2023-02-28T04:27:14;102515.66;;;24.24;31.36
59240;BME280;45010;53.640;10.578;2023-02-28T04:30:16;102507.00;;;24.22;31.32
59240;BME280;45010;53.640;10.578;2023-02-28T04:33:16;102509.03;;;24.20;31.42
59240;BME280;45010;53.640;10.578;2023-02-28T04:36:17;102504.44;;;24.14;31.51
59240;BME280;45010;53.640;10.578;2023-02-28T04:39:22;102514.72;;;24.17;31.33
59240;BME280;45010;53.640;10.578;2023-02-28T04:42:23;102512.06;;;24.17;31.34
59240;BME280;45010;53.640;10.578;2023-02-28T04:45:23;102515.09;;;24.14;31.23
59240;BME280;45010;53.640;10.578;2023-02-28T04:48:24;102506.28;;;24.13;31.34
59240;BME280;45010;53.640;10.578;2023-02-28T04:51:24;102519.81;;;24.12;31.28
59240;BME280;45010;53.640;10.578;2023-02-28T04:54:25;102526.13;;;24.11;31.56
59240;BME280;45010;53.640;10.578;2023-02-28T04:57:25;102519.16;;;24.10;31.57
59240;BME280;45010;53.640;10.578;2023-02-28T05:00:25;102522.00;;;24.08;31.46
59240;BME280;45010;53.640;10.578;2023-02-28T05:03:26;102526.50;;;24.08;31.65
59240;BME280;45010;53.640;10.578;2023-02-28T05:06:28;102518.03;;;24.04;31.58
59240;BME280;45010;53.640;10.578;2023-02-28T05:09:28;102532.16;;;24.04;31.66
59240;BME280;45010;53.640;10.578;2023-02-28T05:12:29;102530.50;;;24.03;31.74
59240;BME280;45010;53.640;10.578;2023-02-28T05:15:29;102534.19;;;24.02;31.79
59240;BME280;45010;53.640;10.578;2023-02-28T05:18:30;102530.88;;;24.00;31.84
59240;BME280;45010;53.640;10.578;2023-02-28T05:21:33;102514.63;;;23.95;31.86
59240;BME280;45010;53.640;10.578;2023-02-28T05:24:33;102534.56;;;23.99;31.82
59240;BME280;45010;53.640;10.578;2023-02-28T05:27:34;102532.88;;;23.98;31.64
59240;BME280;45010;53.640;10.578;2023-02-28T05:30:34;102536.94;;;23.94;31.70
59240;BME280;45010;53.640;10.578;2023-02-28T05:33:35;102532.25;;;23.96;31.58
59240;BME280;45010;53.640;10.578;2023-02-28T05:36:36;102532.44;;;23.95;31.69
59240;BME280;45010;53.640;10.578;2023-02-28T05:39:37;102510.09;;;23.81;31.90
59240;BME280;45010;53.640;10.578;2023-02-28T05:42:37;102536.28;;;23.92;31.83
59240;BME280;45010;53.640;10.578;2023-02-28T05:45:38;102514.59;;;23.80;31.85
59240;BME280;45010;53.640;10.578;2023-02-28T05:48:39;102538.13;;;23.91;32.04
59240;BME280;45010;53.640;10.578;2023-02-28T05:51:40;102540.81;;;23.91;31.73
59240;BME280;45010;53.640;10.578;2023-02-28T05:54:40;102540.97;;;23.90;31.73
59240;BME280;45010;53.640;10.578;2023-02-28T05:57:41;102541.16;;;23.88;31.83
59240;BME280;45010;53.640;10.578;2023-02-28T06:00:42;102544.66;;;23.89;31.78
59240;BME280;45010;53.640;10.578;2023-02-28T06:03:42;102545.84;;;23.86;31.82
59240;BME280;45010;53.640;10.578;2023-02-28T06:06:47;102538.41;;;23.82;32.05
59240;BME280;45010;53.640;10.578;2023-02-28T06:09:47;102536.72;;;23.81;31.79
59240;BME280;45010;53.640;10.578;2023-02-28T06:12:48;102549.53;;;23.85;32.12
59240;BME280;45010;53.640;10.578;2023-02-28T06:15:48;102560.19;;;23.85;31.93
59240;BME280;45010;53.640;10.578;2023-02-28T06:18:48;102563.88;;;23.84;31.66
59240;BME280;45010;53.640;10.578;2023-02-28T06:21:49;102562.72;;;23.78;31.70
59240;BME280;45010;53.640;10.578;2023-02-28T06:24:52;102565.84;;;23.82;31.83
59240;BME280;45010;53.640;10.578;2023-02-28T06:27:54;102557.06;;;23.82;31.81
59240;BME280;45010;53.640;10.578;2023-02-28T06:30:54;102567.72;;;23.82;31.94
59240;BME280;45010;53.640;10.578;2023-02-28T06:33:55;102567.03;;;23.80;32.19
59240;BME280;45010;53.640;10.578;2023-02-28T06:36:56;102567.03;;;23.80;32.24
59240;BME280;45010;53.640;10.578;2023-02-28T06:39:56;102567.03;;;23.80;32.25
59240;BME280;45010;53.640;10.578;2023-02-28T06:42:56;102558.75;;;23.74;32.17
59240;BME280;45010;53.640;10.578;2023-02-28T06:45:58;102562.44;;;23.73;31.94
59240;BME280;45010;53.640;10.578;2023-02-28T06:48:59;102569.06;;;23.77;32.26
59240;BME280;45010;53.640;10.578;2023-02-28T06:51:59;102560.78;;;23.72;32.48
59240;BME280;45010;53.640;10.578;2023-02-28T06:54:59;102580.75;;;23.76;32.48
59240;BME280;45010;53.640;10.578;2023-02-28T06:58:00;102578.06;;;23.76;32.38
59240;BME280;45010;53.640;10.578;2023-02-28T07:01:00;102579.72;;;23.77;32.41
59240;BME280;45010;53.640;10.578;2023-02-28T07:04:02;102571.44;;;23.72;32.42
59240;BME280;45010;53.640;10.578;2023-02-28T07:07:02;102574.41;;;23.77;32.43
59240;BME280;45010;53.640;10.578;2023-02-28T07:10:03;102574.66;;;23.68;32.57
59240;BME280;45010;53.640;10.578;2023-02-28T07:13:06;102580.63;;;23.70;32.72
59240;BME280;45010;53.640;10.578;2023-02-28T07:16:10;102578.78;;;23.70;32.64
59240;BME280;45010;53.640;10.578;2023-02-28T07:19:10;102586.41;;;23.73;32.46
59240;BME280;45010;53.640;10.578;2023-02-28T07:22:11;102562.22;;;23.60;32.60
59240;BME280;45010;53.640;10.578;2023-02-28T07:25:11;102568.13;;;23.70;32.39
59240;BME280;45010;53.640;10.578;2023-02-28T07:28:12;102577.16;;;23.69;32.50
59240;BME280;45010;53.640;10.578;2023-02-28T07:31:14;102552.22;;;23.62;32.60
59240;BME280;45010;53.640;10.578;2023-02-28T07:34:16;102580.06;;;23.74;32.76
59240;BME280;45010;53.640;10.578;2023-02-28T07:37:16;102573.09;;;23.73;32.84
59240;BME280;45010;53.640;10.578;2023-02-28T07:40:16;102571.16;;;23.67;32.86
59240;BME280;45010;53.640;10.578;2023-02-28T07:43:17;102583.75;;;23.73;32.85
59240;BME280;45010;53.640;10.578;2023-02-28T07:46:18;102583.75;;;23.73;32.74
59240;BME280;45010;53.640;10.578;2023-02-28T07:49:20;102589.06;;;23.73;32.85
59240;BME280;45010;53.640;10.578;2023-02-28T07:52:20;102576.84;;;23.64;32.75
59240;BME280;45010;53.640;10.578;2023-02-28T07:55:20;102587.13;;;23.67;32.38
59240;BME280;45010;53.640;10.578;2023-02-28T07:58:21;102590.94;;;23.73;32.29
59240;BME280;45010;53.640;10.578;2023-02-28T08:01:21;102578.34;;;23.67;32.44
59240;BME280;45010;53.640;10.578;2023-02-28T08:04:21;102598.94;;;23.73;32.33
59240;BME280;45010;53.640;10.578;2023-02-28T08:07:22;102599.72;;;23.73;32.08
59240;BME280;45010;53.640;10.578;2023-02-28T08:10:23;102589.78;;;23.67;31.84
59240;BME280;45010;53.640;10.578;2023-02-28T08:13:24;102601.75;;;23.71;31.55
59240;BME280;45010;53.640;10.578;2023-02-28T08:16:24;102598.09;;;23.72;31.46
59240;BME280;45010;53.640;10.578;2023-02-28T08:19:25;102601.75;;;23.71;31.66
59240;BME280;45010;53.640;10.578;2023-02-28T08:22:25;102602.78;;;23.70;31.51
59240;BME280;45010;53.640;10.578;2023-02-28T08:25:25;102596.44;;;23.71;31.64
59240;BME280;45010;53.640;10.578;2023-02-28T08:28:26;102600.09;;;23.70;31.65
59240;BME280;45010;53.640;10.578;2023-02-28T08:31:26;102597.63;;;23.69;31.43
59240;BME280;45010;53.640;10.578;2023-02-28T08:34:26;102596.78;;;23.68;31.47
59240;BME280;45010;53.640;10.578;2023-02-28T08:37:27;102598.47;;;23.69;31.32
59240;BME280;45010;53.640;10.578;2023-02-28T08:40:27;102600.44;;;23.67;31.84
59240;BME280;45010;53.640;10.578;2023-02-28T08:43:28;102600.44;;;23.67;31.78
59240;BME280;45010;53.640;10.578;2023-02-28T08:46:28;102609.47;;;23.66;31.82
59240;BME280;45010;53.640;10.578;2023-02-28T08:49:29;102605.13;;;23.65;31.83
59240;BME280;45010;53.640;10.578;2023-02-28T08:52:29;102606.78;;;23.66;31.78
59240;BME280;45010;53.640;10.578;2023-02-28T08:55:29;102604.13;;;23.66;32.02
59240;BME280;45010;53.640;10.578;2023-02-28T08:58:30;102606.16;;;23.64;31.98
59240;BME280;45010;53.640;10.578;2023-02-28T09:01:30;102610.47;;;23.65;32.11
59240;BME280;45010;53.640;10.578;2023-02-28T09:04:33;102612.28;;;23.64;32.02
59240;BME280;45010;53.640;10.578;2023-02-28T09:07:33;102613.13;;;23.65;32.17
59240;BME280;45010;53.640;10.578;2023-02-28T09:10:34;102614.78;;;23.66;32.16
59240;BME280;45010;53.640;10.578;2023-02-28T09:13:34;102613.94;;;23.65;32.17
59240;BME280;45010;53.640;10.578;2023-02-28T09:16:35;102618.47;;;23.65;32.27
59240;BME280;45010;53.640;10.578;2023-02-28T09:19:35;102622.13;;;23.64;32.41
59240;BME280;45010;53.640;10.578;2023-02-28T09:22:36;102619.28;;;23.65;31.43
59240;BME280;45010;53.640;10.578;2023-02-28T09:25:37;102614.78;;;23.66;32.32
59240;BME280;45010;53.640;10.578;2023-02-28T09:28:38;102620.09;;;23.66;32.38
59240;BME280;45010;53.640;10.578;2023-02-28T09:31:38;102614.78;;;23.66;32.24
59240;BME280;45010;53.640;10.578;2023-02-28T09:34:38;102610.28;;;23.67;32.31
59240;BME280;45010;53.640;10.578;2023-02-28T09:37:39;102614.78;;;23.66;32.73
59240;BME280;45010;53.640;10.578;2023-02-28T09:40:47;102630.75;;;23.66;33.09
59240;BME280;45010;53.640;10.578;2023-02-28T09:43:52;102629.75;;;23.67;33.42
59240;BME280;45010;53.640;10.578;2023-02-28T09:46:57;102626.75;;;23.70;33.66
59240;BME280;45010;53.640;10.578;2023-02-28T09:50:29;102632.72;;;23.72;33.51
59240;BME280;45010;53.640;10.578;2023-02-28T09:53:35;102619.78;;;23.69;33.34
59240;BME280;45010;53.640;10.578;2023-02-28T09:56:41;102619.41;;;23.72;33.79
59240;BME280;45010;53.640;10.578;2023-02-28T10:03:29;102632.28;;;23.84;33.57
59240;BME280;45010;53.640;10.578;2023-02-28T10:06:38;102628.28;;;23.88;33.42
59240;BME280;45010;53.640;10.578;2023-02-28T10:09:41;102629.56;;;23.92;33.44
59240;BME280;45010;53.640;10.578;2023-02-28T10:12:43;102627.56;;;23.94;32.86
59240;BME280;45010;53.640;10.578;2023-02-28T10:15:47;102625.53;;;23.96;31.00
59240;BME280;45010;53.640;10.578;2023-02-28T10:18:53;102616.91;;;23.94;29.97
59240;BME280;45010;53.640;10.578;2023-02-28T10:24:58;102619.34;;;23.96;27.43
59240;BME280;45010;53.640;10.578;2023-02-28T10:28:12;102624.16;;;24.00;26.31
59240;BME280;45010;53.640;10.578;2023-02-28T10:31:19;102614.88;;;23.96;26.21
59240;BME280;45010;53.640;10.578;2023-02-28T10:34:19;102622.97;;;24.03;25.97
59240;BME280;45010;53.640;10.578;2023-02-28T10:37:19;102621.13;;;24.03;26.10
59240;BME280;45010;53.640;10.578;2023-02-28T10:43:22;102622.47;;;24.08;26.31
59240;BME280;45010;53.640;10.578;2023-02-28T10:46:23;102626.59;;;24.10;26.45
59240;BME280;45010;53.640;10.578;2023-02-28T10:49:27;102600.53;;;23.97;26.22
59240;BME280;45010;53.640;10.578;2023-02-28T10:52:37;102614.75;;;24.13;26.70
59240;BME280;45010;53.640;10.578;2023-02-28T10:55:38;102623.69;;;24.20;26.97
59240;BME280;45010;53.640;10.578;2023-02-28T10:58:57;102626.63;;;24.25;27.00
59240;BME280;45010;53.640;10.578;2023-02-28T11:01:58;102628.91;;;24.28;27.24
59240;BME280;45010;53.640;10.578;2023-02-28T11:04:59;102630.22;;;24.33;27.32
59240;BME280;45010;53.640;10.578;2023-02-28T11:08:06;102627.00;;;24.37;27.07
59240;BME280;45010;53.640;10.578;2023-02-28T11:11:10;102625.81;;;24.40;27.00
59240;BME280;45010;53.640;10.578;2023-02-28T11:14:40;102629.78;;;24.44;26.95
59240;BME280;45010;53.640;10.578;2023-02-28T11:18:23;102625.06;;;24.46;27.07
59240;BME280;45010;53.640;10.578;2023-02-28T11:21:27;102621.78;;;24.44;27.32
59240;BME280;45010;53.640;10.578;2023-02-28T11:24:33;102624.34;;;24.52;27.13
59240;BME280;45010;53.640;10.578;2023-02-28T11:27:53;102619.00;;;24.52;27.13
59240;BME280;45010;53.640;10.578;2023-02-28T11:34:24;102607.97;;;24.55;27.41
59240;BME280;45010;53.640;10.578;2023-02-28T11:37:27;102610.53;;;24.64;27.32
59240;BME280;45010;53.640;10.578;2023-02-28T11:40:48;102610.19;;;24.67;27.32
59240;BME280;45010;53.640;10.578;2023-02-28T11:54:08;102592.88;;;24.78;28.02
59240;BME280;45010;53.640;10.578;2023-02-28T12:04:25;102573.72;;;24.74;27.73
59240;BME280;45010;53.640;10.578;2023-02-28T12:07:31;102579.66;;;24.84;27.68
59240;BME280;45010;53.640;10.578;2023-02-28T12:10:57;102569.78;;;24.85;27.60
59240;BME280;45010;53.640;10.578;2023-02-28T12:14:25;102567.19;;;24.92;27.45
59240;BME280;45010;53.640;10.578;2023-02-28T12:20:48;102555.41;;;24.86;27.45
59240;BME280;45010;53.640;10.578;2023-02-28T12:27:23;102548.34;;;24.93;27.59
59240;BME280;45010;53.640;10.578;2023-02-28T12:30:28;102549.78;;;24.96;27.36
59240;BME280;45010;53.640;10.578;2023-02-28T12:33:36;102531.28;;;24.94;27.03
59240;BME280;45010;53.640;10.578;2023-02-28T12:36:41;102541.16;;;25.16;26.89
59240;BME280;45010;53.640;10.578;2023-02-28T12:39:47;102538.38;;;25.02;27.07
59240;BME280;45010;53.640;10.578;2023-02-28T12:42:56;102520.19;;;24.91;26.67
59240;BME280;45010;53.640;10.578;2023-02-28T12:46:18;102519.41;;;24.97;26.82
59240;BME280;45010;53.640;10.578;2023-02-28T12:49:34;102521.94;;;25.05;26.83
59240;BME280;45010;53.640;10.578;2023-02-28T12:59:20;102489.06;;;25.05;26.85
59240;BME280;45010;53.640;10.578;2023-02-28T13:06:13;102499.47;;;25.15;26.68
59240;BME280;45010;53.640;10.578;2023-02-28T13:09:19;102488.78;;;25.15;26.53
59240;BME280;45010;53.640;10.578;2023-02-28T13:12:19;102486.75;;;25.17;26.52
59240;BME280;45010;53.640;10.578;2023-02-28T13:15:27;102490.03;;;25.19;26.38
59240;BME280;45010;53.640;10.578;2023-02-28T13:18:39;102487.19;;;25.20;26.33
59240;BME280;45010;53.640;10.578;2023-02-28T13:21:43;102485.72;;;25.18;26.43
59240;BME280;45010;53.640;10.578;2023-02-28T13:24:47;102478.72;;;25.17;25.87
59240;BME280;45010;53.640;10.578;2023-02-28T13:27:49;102486.16;;;25.21;24.81
59240;BME280;45010;53.640;10.578;2023-02-28T13:40:30;102487.56;;;25.17;24.33
59240;BME280;45010;53.640;10.578;2023-02-28T13:44:09;102491.06;;;25.18;24.24
59240;BME280;45010;53.640;10.578;2023-02-28T13:53:48;102491.69;;;25.20;24.63
59240;BME280;45010;53.640;10.578;2023-02-28T14:00:41;102489.66;;;25.22;24.90
59240;BME280;45010;53.640;10.578;2023-02-28T14:03:47;102493.97;;;25.23;24.90
59240;BME280;45010;53.640;10.578;2023-02-28T14:06:51;102482.03;;;25.19;24.72
59240;BME280;45010;53.640;10.578;2023-02-28T14:10:02;102493.78;;;25.24;24.56
59240;BME280;45010;53.640;10.578;2023-02-28T14:13:13;102494.59;;;25.25;24.76
59240;BME280;45010;53.640;10.578;2023-02-28T14:16:14;102491.69;;;25.20;24.67
59240;BME280;45010;53.640;10.578;2023-02-28T14:19:26;102485.34;;;25.21;24.46
59240;BME280;45010;53.640;10.578;2023-02-28T14:29:38;102488.06;;;25.28;25.54
59240;BME280;45010;53.640;10.578;2023-02-28T14:39:25;102490.53;;;25.29;25.77
59240;BME280;45010;53.640;10.578;2023-02-28T14:42:36;102490.53;;;25.29;26.03
59240;BME280;45010;53.640;10.578;2023-02-28T14:45:50;102485.59;;;25.26;26.27
59240;BME280;45010;53.640;10.578;2023-02-28T14:48:51;102468.03;;;25.17;26.25
59240;BME280;45010;53.640;10.578;2023-02-28T14:52:19;102490.16;;;25.32;26.40
59240;BME280;45010;53.640;10.578;2023-02-28T14:55:24;102485.63;;;25.33;26.55
59240;BME280;45010;53.640;10.578;2023-02-28T14:58:31;102475.53;;;25.28;26.55
59240;BME280;45010;53.640;10.578;2023-02-28T15:01:32;102475.34;;;25.30;26.64
59240;BME280;45010;53.640;10.578;2023-02-28T15:04:33;102477.44;;;25.34;26.71
59240;BME280;45010;53.640;10.578;2023-02-28T15:07:33;102470.03;;;25.36;26.75
59240;BME280;45010;53.640;10.578;2023-02-28T15:10:34;102475.38;;;25.36;26.75
59240;BME280;45010;53.640;10.578;2023-02-28T15:13:42;102466.34;;;25.37;26.85
59240;BME280;45010;53.640;10.578;2023-02-28T15:16:45;102455.66;;;25.37;26.79
59240;BME280;45010;53.640;10.578;2023-02-28T15:19:48;102442.91;;;25.33;26.97
59240;BME280;45010;53.640;10.578;2023-02-28T15:22:54;102452.00;;;25.38;27.01
59240;BME280;45010;53.640;10.578;2023-02-28T15:25:55;102452.00;;;25.38;27.12
59240;BME280;45010;53.640;10.578;2023-02-28T15:29:02;102444.78;;;25.39;27.50
59240;BME280;45010;53.640;10.578;2023-02-28T15:32:06;102414.91;;;25.22;27.07
59240;BME280;45010;53.640;10.578;2023-02-28T15:35:20;102441.09;;;25.40;26.96
59240;BME280;45010;53.640;10.578;2023-02-28T15:44:27;102416.16;;;25.26;27.32
59240;BME280;45010;53.640;10.578;2023-02-28T15:47:30;102433.94;;;25.41;27.63
59240;BME280;45010;53.640;10.578;2023-02-28T15:50:31;102427.75;;;25.40;27.40
59240;BME280;45010;53.640;10.578;2023-02-28T15:53:38;102433.94;;;25.41;27.52
59240;BME280;45010;53.640;10.578;2023-02-28T15:56:46;102439.28;;;25.41;27.50
59240;BME280;45010;53.640;10.578;2023-02-28T16:00:00;102436.41;;;25.42;27.26
59240;BME280;45010;53.640;10.578;2023-02-28T16:03:01;102436.59;;;25.41;27.39
59240;BME280;45010;53.640;10.578;2023-02-28T16:09:22;102435.56;;;25.42;27.32
59240;BME280;45010;53.640;10.578;2023-02-28T16:12:26;102437.22;;;25.43;27.72
59240;BME280;45010;53.640;10.578;2023-02-28T16:15:29;102423.63;;;25.37;27.81
59240;BME280;45010;53.640;10.578;2023-02-28T16:18:30;102431.88;;;25.43;27.74
59240;BME280;45010;53.640;10.578;2023-02-28T16:21:31;102437.22;;;25.43;27.69
59240;BME280;45010;53.640;10.578;2023-02-28T16:24:31;102439.69;;;25.44;27.78
59240;BME280;45010;53.640;10.578;2023-02-28T16:27:36;102432.28;;;25.39;27.70
59240;BME280;45010;53.640;10.578;2023-02-28T16:30:37;102442.19;;;25.46;27.51
59240;BME280;45010;53.640;10.578;2023-02-28T16:33:37;102437.88;;;25.45;27.95
59240;BME280;45010;53.640;10.578;2023-02-28T16:36:38;102435.19;;;25.45;27.67
59240;BME280;45010;53.640;10.578;2023-02-28T16:39:38;102443.00;;;25.46;27.88
59240;BME280;45010;53.640;10.578;2023-02-28T16:42:40;102436.41;;;25.42;28.03
59240;BME280;45010;53.640;10.578;2023-02-28T16:45:40;102443.00;;;25.46;27.94
59240;BME280;45010;53.640;10.578;2023-02-28T16:48:41;102448.34;;;25.46;27.87
59240;BME280;45010;53.640;10.578;2023-02-28T16:51:41;102443.44;;;25.50;27.84
59240;BME280;45010;53.640;10.578;2023-02-28T16:54:41;102447.91;;;25.43;28.01
59240;BME280;45010;53.640;10.578;2023-02-28T16:57:43;102453.69;;;25.46;28.03
59240;BME280;45010;53.640;10.578;2023-02-28T17:00:43;102450.00;;;25.47;28.28
59240;BME280;45010;53.640;10.578;2023-02-28T17:03:43;102462.34;;;25.48;28.38
59240;BME280;45010;53.640;10.578;2023-02-28T17:06:44;102467.69;;;25.48;28.49
59240;BME280;45010;53.640;10.578;2023-02-28T17:09:45;102472.81;;;25.50;28.70
59240;BME280;45010;53.640;10.578;2023-02-28T17:12:45;102464.78;;;25.50;28.84
59240;BME280;45010;53.640;10.578;2023-02-28T17:15:46;102449.72;;;25.35;29.08
59240;BME280;45010;53.640;10.578;2023-02-28T17:18:47;102472.59;;;25.45;28.94
59240;BME280;45010;53.640;10.578;2023-02-28T17:21:48;102475.88;;;25.47;28.89
59240;BME280;45010;53.640;10.578;2023-02-28T17:24:48;102476.91;;;25.46;28.98
59240;BME280;45010;53.640;10.578;2023-02-28T17:27:49;102465.97;;;25.41;28.95
59240;BME280;45010;53.640;10.578;2023-02-28T17:30:51;102470.91;;;25.44;28.88
59240;BME280;45010;53.640;10.578;2023-02-28T17:33:52;102466.34;;;25.37;28.97
59240;BME280;45010;53.640;10.578;2023-02-28T17:36:54;102471.94;;;25.43;29.24
59240;BME280;45010;53.640;10.578;2023-02-28T17:39:54;102476.25;;;25.44;29.14
59240;BME280;45010;53.640;10.578;2023-02-28T17:42:55;102474.63;;;25.43;29.21
59240;BME280;45010;53.640;10.578;2023-02-28T17:45:56;102465.56;;;25.44;29.46
59240;BME280;45010;53.640;10.578;2023-02-28T17:48:58;102466.41;;;25.44;29.48